sensor_id;sensor_type;location;lat;lon;timestamp;pressure;altitude;pressure_sealevel;temperature;humidity
41843;BME280;74160;52.530;13.188;2024-03-02T00:01:47;100177.81;;;20.90;55.94
41843;BME280;74160;52.530;13.188;2024-03-02T00:04:12;100173.06;;;20.92;55.71
41843;BME280;74160;52.530;13.188;2024-03-02T00:06:37;100176.75;;;20.91;55.72
41843;BME280;74160;52.530;13.188;2024-03-02T00:09:03;100180.66;;;20.88;55.74
41843;BME280;74160;52.530;13.188;2024-03-02T00:11:28;100178.00;;;20.88;55.74
41843;BME280;74160;52.530;13.188;2024-03-02T00:13:53;100177.56;;;20.85;55.77
41843;BME280;74160;52.530;13.188;2024-03-02T00:16:19;100175.91;;;20.77;55.98
41843;BME280;74160;52.530;13.188;2024-03-02T00:18:45;100173.88;;;20.79;55.83
41843;BME280;74160;52.530;13.188;2024-03-02T00:21:10;100187.44;;;20.77;56.04
41843;BME280;74160;52.530;13.188;2024-03-02T00:23:35;100166.66;;;20.73;56.06
41843;BME280;74160;52.530;13.188;2024-03-02T00:26:01;100180.00;;;20.66;56.19
41843;BME280;74160;52.530;13.188;2024-03-02T00:28:27;100178.38;;;20.72;56.13
41843;BME280;74160;52.530;13.188;2024-03-02T00:31:01;100178.78;;;20.69;56.17
41843;BME280;74160;52.530;13.188;2024-03-02T00:33:28;100178.19;;;20.67;56.33
41843;BME280;74160;52.530;13.188;2024-03-02T00:35:55;100174.28;;;20.63;56.19
41843;BME280;74160;52.530;13.188;2024-03-02T00:38:21;100174.22;;;20.56;56.48
41843;BME280;74160;52.530;13.188;2024-03-02T00:40:47;100172.00;;;20.59;56.62
41843;BME280;74160;52.530;13.188;2024-03-02T00:45:56;100169.94;;;20.61;56.31
41843;BME280;74160;52.530;13.188;2024-03-02T00:48:22;100166.84;;;20.58;56.39
41843;BME280;74160;52.530;13.188;2024-03-02T00:50:50;100161.09;;;20.54;56.81
41843;BME280;74160;52.530;13.188;2024-03-02T00:53:17;100161.47;;;20.51;56.58
41843;BME280;74160;52.530;13.188;2024-03-02T00:55:43;100166.19;;;20.49;56.63
41843;BME280;74160;52.530;13.188;2024-03-02T00:58:12;100163.94;;;20.46;56.81
41843;BME280;74160;52.530;13.188;2024-03-02T01:00:37;100156.13;;;20.45;56.77
41843;BME280;74160;52.530;13.188;2024-03-02T01:03:03;100159.63;;;20.45;56.60
41843;BME280;74160;52.530;13.188;2024-03-02T01:05:29;100156.31;;;20.43;56.79
41843;BME280;74160;52.530;13.188;2024-03-02T01:07:54;100160.22;;;20.40;57.24
41843;BME280;74160;52.530;13.188;2024-03-02T01:10:19;100163.09;;;20.39;56.67
41843;BME280;74160;52.530;13.188;2024-03-02T01:12:45;100164.13;;;20.38;56.68
41843;BME280;74160;52.530;13.188;2024-03-02T01:15:10;100168.22;;;20.40;56.71
41843;BME280;74160;52.530;13.188;2024-03-02T01:17:36;100151.41;;;20.40;56.57
41843;BME280;74160;52.530;13.188;2024-03-02T01:20:01;100154.88;;;20.47;56.94
41843;BME280;74160;52.530;13.188;2024-03-02T01:22:26;100156.75;;;20.47;56.71
41843;BME280;74160;52.530;13.188;2024-03-02T01:24:52;100151.84;;;20.50;56.51
41843;BME280;74160;52.530;13.188;2024-03-02T01:27:17;100144.84;;;20.49;56.66
41843;BME280;74160;52.530;13.188;2024-03-02T01:29:43;100155.09;;;20.46;56.54
41843;BME280;74160;52.530;13.188;2024-03-02T01:32:09;100147.31;;;20.44;56.83
41843;BME280;74160;52.530;13.188;2024-03-02T01:34:34;100149.53;;;20.40;56.63
41843;BME280;74160;52.530;13.188;2024-03-02T01:36:59;100146.47;;;20.43;56.94
41843;BME280;74160;52.530;13.188;2024-03-02T01:39:24;100128.19;;;20.47;56.46
41843;BME280;74160;52.530;13.188;2024-03-02T01:41:49;100141.34;;;20.49;56.48
41843;BME280;74160;52.530;13.188;2024-03-02T01:44:15;100141.97;;;20.44;56.62
41843;BME280;74160;52.530;13.188;2024-03-02T01:46:40;100135.78;;;20.43;56.37
41843;BME280;74160;52.530;13.188;2024-03-02T01:49:05;100124.53;;;20.48;55.96
41843;BME280;74160;52.530;13.188;2024-03-02T01:51:31;100120.38;;;20.46;56.54
41843;BME280;74160;52.530;13.188;2024-03-02T01:53:56;100121.44;;;20.45;56.26
41843;BME280;74160;52.530;13.188;2024-03-02T01:56:21;100127.16;;;20.41;56.50
41843;BME280;74160;52.530;13.188;2024-03-02T01:58:47;100121.19;;;20.39;56.66
41843;BME280;74160;52.530;13.188;2024-03-02T02:01:12;100115.03;;;20.39;56.70
41843;BME280;74160;52.530;13.188;2024-03-02T02:03:37;100109.72;;;20.39;56.60
41843;BME280;74160;52.530;13.188;2024-03-02T02:06:02;100107.66;;;20.41;56.75
41843;BME280;74160;52.530;13.188;2024-03-02T02:08:28;100108.09;;;20.45;56.22
41843;BME280;74160;52.530;13.188;2024-03-02T02:10:53;100103.56;;;20.38;56.33
41843;BME280;74160;52.530;13.188;2024-03-02T02:13:18;100102.94;;;20.43;56.58
41843;BME280;74160;52.530;13.188;2024-03-02T02:15:43;100096.38;;;20.46;55.85
41843;BME280;74160;52.530;13.188;2024-03-02T02:18:09;100093.69;;;20.39;56.54
41843;BME280;74160;52.530;13.188;2024-03-02T02:20:34;100096.97;;;20.41;56.42
41843;BME280;74160;52.530;13.188;2024-03-02T02:23:00;100090.22;;;20.45;56.00
41843;BME280;74160;52.530;13.188;2024-03-02T02:25:25;100088.59;;;20.51;56.01
41843;BME280;74160;52.530;13.188;2024-03-02T02:27:51;100090.81;;;20.40;56.09
41843;BME280;74160;52.530;13.188;2024-03-02T02:30:21;100090.00;;;20.47;55.71
41843;BME280;74160;52.530;13.188;2024-03-02T02:32:47;100085.91;;;20.44;56.28
41843;BME280;74160;52.530;13.188;2024-03-02T02:35:12;100082.63;;;20.42;55.99
41843;BME280;74160;52.530;13.188;2024-03-02T02:37:37;100085.69;;;20.46;56.07
41843;BME280;74160;52.530;13.188;2024-03-02T02:40:04;100086.09;;;20.49;55.69
41843;BME280;74160;52.530;13.188;2024-03-02T02:42:30;100086.31;;;20.48;56.21
41843;BME280;74160;52.530;13.188;2024-03-02T02:44:55;100092.06;;;20.45;55.58
41843;BME280;74160;52.530;13.188;2024-03-02T02:47:20;100086.53;;;20.46;55.91
41843;BME280;74160;52.530;13.188;2024-03-02T02:49:45;100091.03;;;20.46;55.78
41843;BME280;74160;52.530;13.188;2024-03-02T02:52:11;100090.41;;;20.43;56.14
41843;BME280;74160;52.530;13.188;2024-03-02T02:54:37;100096.38;;;20.39;56.25
41843;BME280;74160;52.530;13.188;2024-03-02T02:57:02;100087.94;;;20.35;55.58
41843;BME280;74160;52.530;13.188;2024-03-02T02:59:28;100092.06;;;20.38;55.96
41843;BME280;74160;52.530;13.188;2024-03-02T03:01:53;100088.53;;;20.37;55.48
41843;BME280;74160;52.530;13.188;2024-03-02T03:04:19;100087.53;;;20.38;56.00
41843;BME280;74160;52.530;13.188;2024-03-02T03:06:44;100093.06;;;20.30;55.49
41843;BME280;74160;52.530;13.188;2024-03-02T03:09:09;100093.69;;;20.32;55.39
41843;BME280;74160;52.530;13.188;2024-03-02T03:11:36;100091.84;;;20.33;55.78
41843;BME280;74160;52.530;13.188;2024-03-02T03:14:01;100092.25;;;20.36;56.03
41843;BME280;74160;52.530;13.188;2024-03-02T03:16:26;100095.53;;;20.32;55.57
41843;BME280;74160;52.530;13.188;2024-03-02T03:18:51;100089.59;;;20.30;55.53
41843;BME280;74160;52.530;13.188;2024-03-02T03:21:18;100089.59;;;20.30;55.85
41843;BME280;74160;52.530;13.188;2024-03-02T03:23:43;100091.22;;;20.31;55.67
41843;BME280;74160;52.530;13.188;2024-03-02T03:26:09;100089.16;;;20.26;55.57
41843;BME280;74160;52.530;13.188;2024-03-02T03:28:34;100090.41;;;20.30;55.43
41843;BME280;74160;52.530;13.188;2024-03-02T03:30:59;100087.91;;;20.29;55.50
41843;BME280;74160;52.530;13.188;2024-03-02T03:33:24;100087.31;;;20.27;55.34
41843;BME280;74160;52.530;13.188;2024-03-02T03:35:50;100093.25;;;20.29;55.54
41843;BME280;74160;52.530;13.188;2024-03-02T03:38:15;100094.50;;;20.26;55.32
41843;BME280;74160;52.530;13.188;2024-03-02T03:40:40;100093.88;;;20.24;55.55
41843;BME280;74160;52.530;13.188;2024-03-02T03:43:05;100095.53;;;20.25;55.48
41843;BME280;74160;52.530;13.188;2024-03-02T03:45:31;100097.34;;;20.25;55.35
41843;BME280;74160;52.530;13.188;2024-03-02T03:47:56;100089.78;;;20.21;55.61
41843;BME280;74160;52.530;13.188;2024-03-02T03:50:21;100100.25;;;20.23;55.55
41843;BME280;74160;52.530;13.188;2024-03-02T03:52:47;100097.97;;;20.20;55.48
41843;BME280;74160;52.530;13.188;2024-03-02T03:55:12;100093.66;;;20.19;55.66
41843;BME280;74160;52.530;13.188;2024-03-02T03:57:37;100095.31;;;20.20;55.47
41843;BME280;74160;52.530;13.188;2024-03-02T04:00:03;100096.97;;;20.21;55.56
41843;BME280;74160;52.530;13.188;2024-03-02T04:02:28;100093.88;;;20.17;55.53
41843;BME280;74160;52.530;13.188;2024-03-02T04:04:53;100097.16;;;20.19;55.41
41843;BME280;74160;52.530;13.188;2024-03-02T04:07:19;100105.97;;;20.20;55.56
41843;BME280;74160;52.530;13.188;2024-03-02T04:09:44;100112.34;;;20.19;55.58
41843;BME280;74160;52.530;13.188;2024-03-02T04:12:09;100109.06;;;20.17;55.47
41843;BME280;74160;52.530;13.188;2024-03-02T04:14:34;100108.84;;;20.18;55.44
41843;BME280;74160;52.530;13.188;2024-03-02T04:17:00;100116.22;;;20.16;55.46
41843;BME280;74160;52.530;13.188;2024-03-02T04:19:25;100119.13;;;20.15;55.60
41843;BME280;74160;52.530;13.188;2024-03-02T04:21:50;100111.91;;;20.15;55.51
41843;BME280;74160;52.530;13.188;2024-03-02T04:24:15;100114.59;;;20.15;55.52
41843;BME280;74160;52.530;13.188;2024-03-02T04:26:41;100126.06;;;20.16;55.55
41843;BME280;74160;52.530;13.188;2024-03-02T04:29:06;100118.25;;;20.14;55.56
41843;BME280;74160;52.530;13.188;2024-03-02T04:31:31;100124.63;;;20.13;55.49
41843;BME280;74160;52.530;13.188;2024-03-02T04:33:56;100125.66;;;20.12;55.54
41843;BME280;74160;52.530;13.188;2024-03-02T04:36:21;100125.66;;;20.12;55.62
41843;BME280;74160;52.530;13.188;2024-03-02T04:38:47;100129.34;;;20.11;55.70
41843;BME280;74160;52.530;13.188;2024-03-02T04:41:13;100124.63;;;20.13;55.48
41843;BME280;74160;52.530;13.188;2024-03-02T04:43:38;100128.53;;;20.11;55.44
41843;BME280;74160;52.530;13.188;2024-03-02T04:46:05;100125.88;;;20.11;55.42
41843;BME280;74160;52.530;13.188;2024-03-02T04:48:31;100125.66;;;20.12;55.47
41843;BME280;74160;52.530;13.188;2024-03-02T04:50:57;100126.69;;;20.11;55.62
41843;BME280;74160;52.530;13.188;2024-03-02T04:53:22;100126.69;;;20.11;55.53
41843;BME280;74160;52.530;13.188;2024-03-02T04:55:47;100129.34;;;20.11;55.56
41843;BME280;74160;52.530;13.188;2024-03-02T04:58:19;100133.03;;;20.10;55.42
41843;BME280;74160;52.530;13.188;2024-03-02T05:00:44;100143.31;;;20.13;55.47
41843;BME280;74160;52.530;13.188;2024-03-02T05:03:11;100141.88;;;20.11;55.42
41843;BME280;74160;52.530;13.188;2024-03-02T05:05:36;100140.03;;;20.11;55.43
41843;BME280;74160;52.530;13.188;2024-03-02T05:08:03;100145.56;;;20.10;55.56
41843;BME280;74160;52.530;13.188;2024-03-02T05:10:28;100155.41;;;20.09;55.50
41843;BME280;74160;52.530;13.188;2024-03-02T05:12:54;100150.06;;;20.09;55.39
41843;BME280;74160;52.530;13.188;2024-03-02T05:15:24;100154.38;;;20.10;55.48
41843;BME280;74160;52.530;13.188;2024-03-02T05:17:49;100155.59;;;20.08;55.61
41843;BME280;74160;52.530;13.188;2024-03-02T05:20:14;100158.06;;;20.09;55.58
41843;BME280;74160;52.530;13.188;2024-03-02T05:22:39;100161.97;;;20.07;55.54
41843;BME280;74160;52.530;13.188;2024-03-02T05:25:05;100162.78;;;20.07;55.47
41843;BME280;74160;52.530;13.188;2024-03-02T05:27:30;100166.28;;;20.08;55.45
41843;BME280;74160;52.530;13.188;2024-03-02T05:29:57;100165.44;;;20.07;55.34
41843;BME280;74160;52.530;13.188;2024-03-02T05:32:23;100177.13;;;20.06;55.44
41843;BME280;74160;52.530;13.188;2024-03-02T05:34:48;100172.63;;;20.07;55.45
41843;BME280;74160;52.530;13.188;2024-03-02T05:37:13;100166.28;;;20.08;55.57
41843;BME280;74160;52.530;13.188;2024-03-02T05:39:39;100165.84;;;20.04;55.62
41843;BME280;74160;52.530;13.188;2024-03-02T05:42:04;100180.66;;;20.07;55.47
41843;BME280;74160;52.530;13.188;2024-03-02T05:44:29;100168.94;;;20.08;55.46
41843;BME280;74160;52.530;13.188;2024-03-02T05:46:55;100174.47;;;20.06;55.50
41843;BME280;74160;52.530;13.188;2024-03-02T05:49:20;100186.78;;;20.07;55.52
41843;BME280;74160;52.530;13.188;2024-03-02T05:51:45;100178.78;;;20.07;55.48
41843;BME280;74160;52.530;13.188;2024-03-02T05:54:10;100179.59;;;20.08;55.49
41843;BME280;74160;52.530;13.188;2024-03-02T05:56:36;100188.84;;;20.05;55.55
41843;BME280;74160;52.530;13.188;2024-03-02T05:59:01;100191.31;;;20.07;55.46
41843;BME280;74160;52.530;13.188;2024-03-02T06:04:04;100201.97;;;20.07;55.39
41843;BME280;74160;52.530;13.188;2024-03-02T06:06:29;100207.09;;;20.08;55.39
41843;BME280;74160;52.530;13.188;2024-03-02T06:08:54;100208.75;;;20.09;55.52
41843;BME280;74160;52.530;13.188;2024-03-02T06:11:20;100211.44;;;20.09;55.49
41843;BME280;74160;52.530;13.188;2024-03-02T06:13:45;100204.44;;;20.08;55.37
41843;BME280;74160;52.530;13.188;2024-03-02T06:16:10;100203.63;;;20.08;55.54
41843;BME280;74160;52.530;13.188;2024-03-02T06:18:36;100208.56;;;20.11;55.35
41843;BME280;74160;52.530;13.188;2024-03-02T06:21:01;100206.09;;;20.09;55.48
41843;BME280;74160;52.530;13.188;2024-03-02T06:23:26;100200.13;;;20.07;55.39
41843;BME280;74160;52.530;13.188;2024-03-02T06:25:52;100200.13;;;20.07;55.51
41843;BME280;74160;52.530;13.188;2024-03-02T06:28:17;100198.91;;;20.10;55.41
41843;BME280;74160;52.530;13.188;2024-03-02T06:30:42;100192.75;;;20.09;55.25
41843;BME280;74160;52.530;13.188;2024-03-02T06:33:08;100197.06;;;20.10;55.48
41843;BME280;74160;52.530;13.188;2024-03-02T06:35:33;100192.94;;;20.08;55.54
41843;BME280;74160;52.530;13.188;2024-03-02T06:38:00;100196.81;;;19.98;55.46
41843;BME280;74160;52.530;13.188;2024-03-02T06:40:25;100199.03;;;19.32;55.51
41843;BME280;74160;52.530;13.188;2024-03-02T06:42:50;100197.88;;;19.13;54.47
41843;BME280;74160;52.530;13.188;2024-03-02T06:45:15;100198.31;;;18.95;53.97
41843;BME280;74160;52.530;13.188;2024-03-02T06:47:41;100188.28;;;18.75;53.36
41843;BME280;74160;52.530;13.188;2024-03-02T06:50:06;100197.13;;;18.61;53.00
41843;BME280;74160;52.530;13.188;2024-03-02T06:52:32;100192.53;;;18.70;52.54
41843;BME280;74160;52.530;13.188;2024-03-02T06:54:57;100204.72;;;18.64;52.19
41843;BME280;74160;52.530;13.188;2024-03-02T06:57:22;100205.41;;;18.51;52.29
41843;BME280;74160;52.530;13.188;2024-03-02T06:59:49;100209.47;;;18.47;52.16
41843;BME280;74160;52.530;13.188;2024-03-02T07:02:16;100208.94;;;18.37;51.85
41843;BME280;74160;52.530;13.188;2024-03-02T07:04:41;100216.09;;;18.36;51.71
41843;BME280;74160;52.530;13.188;2024-03-02T07:07:06;100208.75;;;18.38;51.98
41843;BME280;74160;52.530;13.188;2024-03-02T07:09:32;100209.16;;;18.35;51.42
41843;BME280;74160;52.530;13.188;2024-03-02T07:11:57;100218.75;;;18.36;51.31
41843;BME280;74160;52.530;13.188;2024-03-02T07:14:23;100215.66;;;18.33;51.15
41843;BME280;74160;52.530;13.188;2024-03-02T07:17:08;100231.50;;;14.74;55.01
41843;BME280;74160;52.530;13.188;2024-03-02T07:19:33;100233.78;;;13.84;58.70
41843;BME280;74160;52.530;13.188;2024-03-02T07:21:58;100230.59;;;16.05;54.04
41843;BME280;74160;52.530;13.188;2024-03-02T07:24:23;100216.94;;;17.25;51.79
41843;BME280;74160;52.530;13.188;2024-03-02T07:26:49;100223.03;;;17.86;51.10
41843;BME280;74160;52.530;13.188;2024-03-02T07:29:14;100218.69;;;18.30;50.61
41843;BME280;74160;52.530;13.188;2024-03-02T07:31:39;100226.72;;;18.51;50.49
41843;BME280;74160;52.530;13.188;2024-03-02T07:34:05;100239.16;;;18.66;50.74
41843;BME280;74160;52.530;13.188;2024-03-02T07:36:30;100235.75;;;18.72;50.91
41843;BME280;74160;52.530;13.188;2024-03-02T07:38:55;100233.25;;;18.70;51.23
41843;BME280;74160;52.530;13.188;2024-03-02T07:41:21;100238.31;;;18.80;51.34
41843;BME280;74160;52.530;13.188;2024-03-02T07:43:46;100247.13;;;18.80;51.44
41843;BME280;74160;52.530;13.188;2024-03-02T07:46:12;100252.38;;;18.95;51.81
41843;BME280;74160;52.530;13.188;2024-03-02T07:48:37;100255.81;;;18.89;51.96
41843;BME280;74160;52.530;13.188;2024-03-02T07:51:03;100262.47;;;18.78;53.14
41843;BME280;74160;52.530;13.188;2024-03-02T07:53:29;100266.22;;;18.69;53.51
41843;BME280;74160;52.530;13.188;2024-03-02T07:55:54;100268.31;;;18.89;53.27
41843;BME280;74160;52.530;13.188;2024-03-02T07:58:19;100267.84;;;18.85;53.55
41843;BME280;74160;52.530;13.188;2024-03-02T08:00:45;100268.31;;;18.89;53.70
41843;BME280;74160;52.530;13.188;2024-03-02T08:03:10;100265.81;;;18.87;53.74
41843;BME280;74160;52.530;13.188;2024-03-02T08:05:36;100271.78;;;18.89;53.81
41843;BME280;74160;52.530;13.188;2024-03-02T08:08:01;100267.84;;;18.85;53.91
41843;BME280;74160;52.530;13.188;2024-03-02T08:10:27;100267.59;;;18.80;54.31
41843;BME280;74160;52.530;13.188;2024-03-02T08:12:52;100265.75;;;18.80;54.42
41843;BME280;74160;52.530;13.188;2024-03-02T08:15:17;100275.41;;;18.82;54.54
41843;BME280;74160;52.530;13.188;2024-03-02T08:17:43;100275.59;;;18.80;54.73
41843;BME280;74160;52.530;13.188;2024-03-02T08:20:13;100278.72;;;18.84;54.64
41843;BME280;74160;52.530;13.188;2024-03-02T08:22:39;100286.94;;;18.89;54.74
41843;BME280;74160;52.530;13.188;2024-03-02T08:25:04;100280.41;;;18.91;54.85
41843;BME280;74160;52.530;13.188;2024-03-02T08:27:30;100284.84;;;18.84;54.92
41843;BME280;74160;52.530;13.188;2024-03-02T08:29:57;100282.00;;;18.86;55.10
41843;BME280;74160;52.530;13.188;2024-03-02T08:32:22;100285.50;;;18.86;55.22
41843;BME280;74160;52.530;13.188;2024-03-02T08:34:47;100291.38;;;18.82;55.33
41843;BME280;74160;52.530;13.188;2024-03-02T08:37:13;100290.06;;;18.92;55.26
41843;BME280;74160;52.530;13.188;2024-03-02T08:39:38;100296.31;;;18.85;55.47
41843;BME280;74160;52.530;13.188;2024-03-02T08:42:03;100302.28;;;18.87;55.74
41843;BME280;74160;52.530;13.188;2024-03-02T08:44:29;100300.81;;;18.84;55.82
41843;BME280;74160;52.530;13.188;2024-03-02T08:46:54;100299.63;;;18.87;55.87
41843;BME280;74160;52.530;13.188;2024-03-02T08:49:20;100306.97;;;18.85;55.94
41843;BME280;74160;52.530;13.188;2024-03-02T08:51:45;100310.72;;;18.90;55.97
41843;BME280;74160;52.530;13.188;2024-03-02T08:54:19;100311.72;;;18.89;56.18
41843;BME280;74160;52.530;13.188;2024-03-02T08:56:44;100313.38;;;18.90;56.04
41843;BME280;74160;52.530;13.188;2024-03-02T08:59:09;100317.44;;;18.86;56.41
41843;BME280;74160;52.530;13.188;2024-03-02T09:01:35;100323.00;;;18.91;56.25
41843;BME280;74160;52.530;13.188;2024-03-02T09:04:00;100320.09;;;18.86;56.54
41843;BME280;74160;52.530;13.188;2024-03-02T09:06:25;100322.84;;;18.93;56.21
41843;BME280;74160;52.530;13.188;2024-03-02T09:08:50;100321.44;;;18.97;56.41
41843;BME280;74160;52.530;13.188;2024-03-02T09:11:17;100330.66;;;18.94;56.48
41843;BME280;74160;52.530;13.188;2024-03-02T09:13:42;100330.19;;;18.91;56.58
41843;BME280;74160;52.530;13.188;2024-03-02T09:16:07;100325.78;;;18.98;56.43
41843;BME280;74160;52.530;13.188;2024-03-02T09:18:35;100325.69;;;18.91;56.80
41843;BME280;74160;52.530;13.188;2024-03-02T09:21:01;100333.66;;;18.91;56.85
41843;BME280;74160;52.530;13.188;2024-03-02T09:23:26;100329.53;;;18.89;57.08
41843;BME280;74160;52.530;13.188;2024-03-02T09:25:51;100333.03;;;18.89;57.04
41843;BME280;74160;52.530;13.188;2024-03-02T09:28:16;100338.25;;;18.97;56.74
41843;BME280;74160;52.530;13.188;2024-03-02T09:30:42;100331.28;;;18.96;56.85
41843;BME280;74160;52.530;13.188;2024-03-02T09:33:07;100335.97;;;18.94;57.02
41843;BME280;74160;52.530;13.188;2024-03-02T09:35:32;100336.16;;;18.93;56.99
41843;BME280;74160;52.530;13.188;2024-03-02T09:37:57;100341.47;;;18.93;56.98
41843;BME280;74160;52.530;13.188;2024-03-02T09:40:23;100340.72;;;18.99;56.96
41843;BME280;74160;52.530;13.188;2024-03-02T09:42:48;100342.13;;;18.95;57.21
41843;BME280;74160;52.530;13.188;2024-03-02T09:45:19;100344.66;;;19.03;56.92
41843;BME280;74160;52.530;13.188;2024-03-02T09:47:47;100341.75;;;18.98;57.06
41843;BME280;74160;52.530;13.188;2024-03-02T09:50:12;100327.66;;;19.04;56.89
41843;BME280;74160;52.530;13.188;2024-03-02T09:52:39;100331.81;;;19.07;56.84
41843;BME280;74160;52.530;13.188;2024-03-02T09:55:04;100329.91;;;19.00;56.97
41843;BME280;74160;52.530;13.188;2024-03-02T09:57:30;100334.75;;;18.97;57.13
41843;BME280;74160;52.530;13.188;2024-03-02T09:59:55;100336.59;;;18.96;57.30
41843;BME280;74160;52.530;13.188;2024-03-02T10:02:21;100326.59;;;18.98;57.20
41843;BME280;74160;52.530;13.188;2024-03-02T10:04:48;100329.25;;;18.98;57.24
41843;BME280;74160;52.530;13.188;2024-03-02T10:07:15;100326.84;;;19.04;57.13
41843;BME280;74160;52.530;13.188;2024-03-02T10:09:47;100322.59;;;19.09;56.88
41843;BME280;74160;52.530;13.188;2024-03-02T10:12:14;100327.88;;;19.03;57.20
41843;BME280;74160;52.530;13.188;2024-03-02T10:14:39;100324.81;;;19.06;56.99
41843;BME280;74160;52.530;13.188;2024-03-02T10:17:06;100325.56;;;18.99;57.10
41843;BME280;74160;52.530;13.188;2024-03-02T10:19:33;100320.81;;;18.95;57.22
41843;BME280;74160;52.530;13.188;2024-03-02T10:21:59;100317.00;;;19.04;57.14
41843;BME280;74160;52.530;13.188;2024-03-02T10:24:25;100325.28;;;19.09;56.93
41843;BME280;74160;52.530;13.188;2024-03-02T10:26:51;100322.66;;;19.16;56.79
41843;BME280;74160;52.530;13.188;2024-03-02T10:29:16;100328.50;;;19.05;57.03
41843;BME280;74160;52.530;13.188;2024-03-02T10:31:43;100322.53;;;19.03;57.20
41843;BME280;74160;52.530;13.188;2024-03-02T10:34:09;100318.84;;;19.04;57.09
41843;BME280;74160;52.530;13.188;2024-03-02T10:36:35;100325.19;;;19.03;57.16
41843;BME280;74160;52.530;13.188;2024-03-02T10:39:04;100321.97;;;19.07;57.05
41843;BME280;74160;52.530;13.188;2024-03-02T10:41:36;100325.28;;;19.09;57.13
41843;BME280;74160;52.530;13.188;2024-03-02T10:44:05;100321.22;;;19.13;56.98
41843;BME280;74160;52.530;13.188;2024-03-02T10:46:31;100322.84;;;19.14;57.10
41843;BME280;74160;52.530;13.188;2024-03-02T10:48:57;100319.63;;;19.19;56.97
41843;BME280;74160;52.530;13.188;2024-03-02T10:51:24;100330.72;;;19.23;56.83
41843;BME280;74160;52.530;13.188;2024-03-02T10:53:49;100335.69;;;19.26;56.91
41843;BME280;74160;52.530;13.188;2024-03-02T10:56:16;100330.31;;;19.19;56.90
41843;BME280;74160;52.530;13.188;2024-03-02T10:58:47;100329.66;;;19.17;57.13
41843;BME280;74160;52.530;13.188;2024-03-02T11:01:15;100330.47;;;19.17;57.17
41843;BME280;74160;52.530;13.188;2024-03-02T11:03:41;100329.66;;;19.17;57.24
41843;BME280;74160;52.530;13.188;2024-03-02T11:06:07;100338.19;;;19.12;57.30
41843;BME280;74160;52.530;13.188;2024-03-02T11:08:33;100336.75;;;19.10;57.45
41843;BME280;74160;52.530;13.188;2024-03-02T11:11:02;100337.84;;;19.15;57.19
41843;BME280;74160;52.530;13.188;2024-03-02T11:13:32;100337.56;;;19.10;57.42
41843;BME280;74160;52.530;13.188;2024-03-02T11:16:12;100327.34;;;19.14;57.32
41843;BME280;74160;52.530;13.188;2024-03-02T11:18:40;100324.69;;;19.14;57.24
41843;BME280;74160;52.530;13.188;2024-03-02T11:21:06;100335.28;;;19.07;57.44
41843;BME280;74160;52.530;13.188;2024-03-02T11:23:32;100330.03;;;19.14;57.18
41843;BME280;74160;52.530;13.188;2024-03-02T11:28:43;100320.13;;;19.08;57.50
41843;BME280;74160;52.530;13.188;2024-03-02T11:31:08;100329.50;;;19.04;57.64
41843;BME280;74160;52.530;13.188;2024-03-02T11:33:33;100325.00;;;19.04;57.62
41843;BME280;74160;52.530;13.188;2024-03-02T11:35:58;100319.66;;;19.04;57.62
41843;BME280;74160;52.530;13.188;2024-03-02T11:38:27;100315.81;;;19.07;57.42
41843;BME280;74160;52.530;13.188;2024-03-02T11:40:52;100316.72;;;19.14;57.52
41843;BME280;74160;52.530;13.188;2024-03-02T11:43:18;100316.06;;;19.12;57.34
41843;BME280;74160;52.530;13.188;2024-03-02T11:45:44;100317.72;;;19.13;57.42
41843;BME280;74160;52.530;13.188;2024-03-02T11:48:10;100314.22;;;19.12;57.39
41843;BME280;74160;52.530;13.188;2024-03-02T11:53:06;100318.38;;;19.15;57.31
41843;BME280;74160;52.530;13.188;2024-03-02T11:55:34;100317.78;;;19.19;57.00
41843;BME280;74160;52.530;13.188;2024-03-02T11:58:00;100320.53;;;19.26;57.04
41843;BME280;74160;52.530;13.188;2024-03-02T12:00:25;100320.91;;;19.23;57.01
41843;BME280;74160;52.530;13.188;2024-03-02T12:03:09;100327.69;;;19.26;56.88
41843;BME280;74160;52.530;13.188;2024-03-02T12:05:37;100324.00;;;19.27;56.95
41843;BME280;74160;52.530;13.188;2024-03-02T12:08:03;100329.44;;;19.18;57.19
41843;BME280;74160;52.530;13.188;2024-03-02T12:10:29;100334.28;;;19.30;56.81
41843;BME280;74160;52.530;13.188;2024-03-02T12:15:29;100329.09;;;19.21;57.21
41843;BME280;74160;52.530;13.188;2024-03-02T12:17:56;100325.84;;;19.26;56.85
41843;BME280;74160;52.530;13.188;2024-03-02T12:20:21;100328.31;;;19.28;56.93
41843;BME280;74160;52.530;13.188;2024-03-02T12:22:48;100321.44;;;19.33;56.92
41843;BME280;74160;52.530;13.188;2024-03-02T12:25:14;100323.25;;;19.33;56.86
41843;BME280;74160;52.530;13.188;2024-03-02T12:27:40;100324.72;;;19.35;56.64
41843;BME280;74160;52.530;13.188;2024-03-02T12:30:06;100310.13;;;19.31;56.97
41843;BME280;74160;52.530;13.188;2024-03-02T12:32:35;100310.81;;;19.40;56.70
41843;BME280;74160;52.530;13.188;2024-03-02T12:35:00;100308.72;;;19.35;56.85
41843;BME280;74160;52.530;13.188;2024-03-02T12:37:26;100311.41;;;19.35;56.77
41843;BME280;74160;52.530;13.188;2024-03-02T12:39:52;100307.06;;;19.34;56.87
41843;BME280;74160;52.530;13.188;2024-03-02T12:42:18;100317.72;;;19.34;56.91
41843;BME280;74160;52.530;13.188;2024-03-02T12:44:43;100301.75;;;19.34;56.97
41843;BME280;74160;52.530;13.188;2024-03-02T12:47:08;100300.75;;;19.35;56.83